sensor_id;sensor_type;location;lat;lon;timestamp;P1;durP1;ratioP1;P2;durP2;ratioP2
7340;SDS011;6870;50.944;6.932;2022-11-27T00:01:29;1.97;;;1.73;;
7340;SDS011;6870;50.944;6.932;2022-11-27T00:03:59;4.50;;;2.03;;
7340;SDS011;6870;50.944;6.932;2022-11-27T00:06:27;3.60;;;1.97;;
7340;SDS011;6870;50.944;6.932;2022-11-27T00:08:57;2.80;;;2.07;;
7340;SDS011;6870;50.944;6.932;2022-11-27T00:11:29;2.43;;;2.23;;
7340;SDS011;6870;50.944;6.932;2022-11-27T00:13:58;2.63;;;2.40;;
7340;SDS011;6870;50.944;6.932;2022-11-27T00:16:27;2.30;;;1.83;;
7340;SDS011;6870;50.944;6.932;2022-11-27T00:18:55;5.10;;;2.20;;
7340;SDS011;6870;50.944;6.932;2022-11-27T00:21:24;3.63;;;1.73;;
7340;SDS011;6870;50.944;6.932;2022-11-27T00:23:55;2.90;;;2.27;;
7340;SDS011;6870;50.944;6.932;2022-11-27T00:26:27;3.97;;;2.17;;
7340;SDS011;6870;50.944;6.932;2022-11-27T00:29:03;4.70;;;1.97;;
7340;SDS011;6870;50.944;6.932;2022-11-27T00:31:32;2.63;;;1.87;;
7340;SDS011;6870;50.944;6.932;2022-11-27T00:34:04;3.03;;;1.63;;
7340;SDS011;6870;50.944;6.932;2022-11-27T00:36:34;4.30;;;2.40;;
7340;SDS011;6870;50.944;6.932;2022-11-27T00:39:03;2.77;;;1.97;;
7340;SDS011;6870;50.944;6.932;2022-11-27T00:41:32;2.70;;;1.80;;
7340;SDS011;6870;50.944;6.932;2022-11-27T00:44:01;2.37;;;2.07;;
7340;SDS011;6870;50.944;6.932;2022-11-27T00:46:30;2.80;;;2.03;;
7340;SDS011;6870;50.944;6.932;2022-11-27T00:49:01;2.20;;;1.70;;
7340;SDS011;6870;50.944;6.932;2022-11-27T00:51:31;2.00;;;1.60;;
7340;SDS011;6870;50.944;6.932;2022-11-27T00:54:00;2.70;;;2.07;;
7340;SDS011;6870;50.944;6.932;2022-11-27T00:56:30;1.90;;;1.30;;
7340;SDS011;6870;50.944;6.932;2022-11-27T00:59:01;2.87;;;2.23;;
7340;SDS011;6870;50.944;6.932;2022-11-27T01:01:30;2.60;;;2.00;;
7340;SDS011;6870;50.944;6.932;2022-11-27T01:04:02;2.30;;;1.80;;
7340;SDS011;6870;50.944;6.932;2022-11-27T01:06:32;2.77;;;2.07;;
7340;SDS011;6870;50.944;6.932;2022-11-27T01:09:01;3.03;;;1.63;;
7340;SDS011;6870;50.944;6.932;2022-11-27T01:11:33;2.03;;;1.80;;
7340;SDS011;6870;50.944;6.932;2022-11-27T01:14:02;2.10;;;1.40;;
7340;SDS011;6870;50.944;6.932;2022-11-27T01:16:33;2.33;;;1.73;;
7340;SDS011;6870;50.944;6.932;2022-11-27T01:19:08;2.67;;;1.73;;
7340;SDS011;6870;50.944;6.932;2022-11-27T01:21:38;4.20;;;1.50;;
7340;SDS011;6870;50.944;6.932;2022-11-27T01:24:06;2.53;;;1.70;;
7340;SDS011;6870;50.944;6.932;2022-11-27T01:26:38;1.87;;;1.70;;
7340;SDS011;6870;50.944;6.932;2022-11-27T01:29:06;2.03;;;1.87;;
7340;SDS011;6870;50.944;6.932;2022-11-27T01:31:34;2.30;;;1.80;;
7340;SDS011;6870;50.944;6.932;2022-11-27T01:34:04;2.13;;;1.67;;
7340;SDS011;6870;50.944;6.932;2022-11-27T01:36:35;2.70;;;1.90;;
7340;SDS011;6870;50.944;6.932;2022-11-27T01:39:03;2.00;;;1.60;;
7340;SDS011;6870;50.944;6.932;2022-11-27T01:41:32;2.80;;;1.80;;
7340;SDS011;6870;50.944;6.932;2022-11-27T01:47:19;4.07;;;1.60;;
7340;SDS011;6870;50.944;6.932;2022-11-27T01:50:10;3.63;;;2.03;;
7340;SDS011;6870;50.944;6.932;2022-11-27T01:52:46;2.30;;;1.90;;
7340;SDS011;6870;50.944;6.932;2022-11-27T01:55:24;4.73;;;2.40;;
7340;SDS011;6870;50.944;6.932;2022-11-27T01:57:57;14.90;;;3.57;;
7340;SDS011;6870;50.944;6.932;2022-11-27T02:00:32;9.03;;;2.53;;
7340;SDS011;6870;50.944;6.932;2022-11-27T02:03:01;6.23;;;2.70;;
7340;SDS011;6870;50.944;6.932;2022-11-27T02:05:29;10.40;;;3.23;;
7340;SDS011;6870;50.944;6.932;2022-11-27T02:08:01;13.20;;;3.37;;
7340;SDS011;6870;50.944;6.932;2022-11-27T02:10:36;14.23;;;2.63;;
7340;SDS011;6870;50.944;6.932;2022-11-27T02:13:18;5.87;;;2.80;;
7340;SDS011;6870;50.944;6.932;2022-11-27T02:15:59;3.93;;;2.27;;
7340;SDS011;6870;50.944;6.932;2022-11-27T02:18:45;3.30;;;2.00;;
7340;SDS011;6870;50.944;6.932;2022-11-27T02:21:21;5.10;;;2.50;;
7340;SDS011;6870;50.944;6.932;2022-11-27T02:24:12;7.73;;;2.30;;
7340;SDS011;6870;50.944;6.932;2022-11-27T02:27:02;5.10;;;2.47;;
7340;SDS011;6870;50.944;6.932;2022-11-27T02:29:46;8.60;;;3.43;;
7340;SDS011;6870;50.944;6.932;2022-11-27T02:32:18;5.73;;;2.40;;
7340;SDS011;6870;50.944;6.932;2022-11-27T02:34:53;5.23;;;2.40;;
7340;SDS011;6870;50.944;6.932;2022-11-27T02:37:29;12.00;;;2.57;;
7340;SDS011;6870;50.944;6.932;2022-11-27T02:40:03;4.20;;;2.10;;
7340;SDS011;6870;50.944;6.932;2022-11-27T02:42:37;3.40;;;2.47;;
7340;SDS011;6870;50.944;6.932;2022-11-27T02:45:12;5.60;;;2.30;;
7340;SDS011;6870;50.944;6.932;2022-11-27T02:47:44;4.20;;;2.17;;
7340;SDS011;6870;50.944;6.932;2022-11-27T02:50:16;3.97;;;2.37;;
7340;SDS011;6870;50.944;6.932;2022-11-27T02:52:48;2.23;;;1.50;;
7340;SDS011;6870;50.944;6.932;2022-11-27T02:55:20;4.10;;;2.40;;
7340;SDS011;6870;50.944;6.932;2022-11-27T02:57:54;3.13;;;1.80;;
7340;SDS011;6870;50.944;6.932;2022-11-27T03:00:25;4.07;;;2.03;;
7340;SDS011;6870;50.944;6.932;2022-11-27T03:02:55;3.43;;;2.00;;
7340;SDS011;6870;50.944;6.932;2022-11-27T03:05:29;4.10;;;1.77;;
7340;SDS011;6870;50.944;6.932;2022-11-27T03:08:02;5.23;;;2.30;;
7340;SDS011;6870;50.944;6.932;2022-11-27T03:10:35;4.33;;;2.27;;
7340;SDS011;6870;50.944;6.932;2022-11-27T03:13:11;3.10;;;2.13;;
7340;SDS011;6870;50.944;6.932;2022-11-27T03:15:42;4.33;;;1.93;;
7340;SDS011;6870;50.944;6.932;2022-11-27T03:18:19;4.13;;;1.93;;
7340;SDS011;6870;50.944;6.932;2022-11-27T03:20:57;3.50;;;1.60;;
7340;SDS011;6870;50.944;6.932;2022-11-27T03:23:31;5.40;;;2.20;;
7340;SDS011;6870;50.944;6.932;2022-11-27T03:25:59;4.73;;;2.30;;
7340;SDS011;6870;50.944;6.932;2022-11-27T03:28:27;4.47;;;2.20;;
7340;SDS011;6870;50.944;6.932;2022-11-27T03:30:57;4.27;;;2.80;;
7340;SDS011;6870;50.944;6.932;2022-11-27T03:33:25;3.93;;;2.40;;
7340;SDS011;6870;50.944;6.932;2022-11-27T03:35:53;2.97;;;2.07;;
7340;SDS011;6870;50.944;6.932;2022-11-27T03:38:22;2.43;;;1.43;;
7340;SDS011;6870;50.944;6.932;2022-11-27T03:40:51;3.23;;;2.00;;
7340;SDS011;6870;50.944;6.932;2022-11-27T03:43:29;5.17;;;2.17;;
7340;SDS011;6870;50.944;6.932;2022-11-27T03:46:07;2.77;;;1.80;;
7340;SDS011;6870;50.944;6.932;2022-11-27T03:48:46;2.40;;;1.77;;
7340;SDS011;6870;50.944;6.932;2022-11-27T03:51:24;2.17;;;1.40;;
7340;SDS011;6870;50.944;6.932;2022-11-27T03:54:02;3.60;;;2.13;;
7340;SDS011;6870;50.944;6.932;2022-11-27T03:56:38;3.43;;;2.07;;
7340;SDS011;6870;50.944;6.932;2022-11-27T03:59:12;4.00;;;1.97;;
7340;SDS011;6870;50.944;6.932;2022-11-27T04:01:46;5.23;;;2.00;;
7340;SDS011;6870;50.944;6.932;2022-11-27T04:04:15;3.27;;;1.87;;
7340;SDS011;6870;50.944;6.932;2022-11-27T04:06:43;2.03;;;1.63;;
7340;SDS011;6870;50.944;6.932;2022-11-27T04:09:11;4.10;;;1.77;;
7340;SDS011;6870;50.944;6.932;2022-11-27T04:11:39;2.20;;;1.57;;
7340;SDS011;6870;50.944;6.932;2022-11-27T04:14:07;3.30;;;2.37;;
7340;SDS011;6870;50.944;6.932;2022-11-27T04:16:35;1.80;;;1.30;;
7340;SDS011;6870;50.944;6.932;2022-11-27T04:19:05;4.50;;;2.10;;
7340;SDS011;6870;50.944;6.932;2022-11-27T04:21:34;2.63;;;1.47;;
7340;SDS011;6870;50.944;6.932;2022-11-27T04:24:02;2.20;;;1.57;;
7340;SDS011;6870;50.944;6.932;2022-11-27T04:26:30;2.03;;;1.53;;
7340;SDS011;6870;50.944;6.932;2022-11-27T04:28:58;3.17;;;1.80;;
7340;SDS011;6870;50.944;6.932;2022-11-27T04:31:26;2.63;;;1.70;;
7340;SDS011;6870;50.944;6.932;2022-11-27T04:33:54;2.00;;;1.60;;
7340;SDS011;6870;50.944;6.932;2022-11-27T04:36:24;3.07;;;1.53;;
7340;SDS011;6870;50.944;6.932;2022-11-27T04:38:52;2.57;;;1.90;;
7340;SDS011;6870;50.944;6.932;2022-11-27T04:41:20;1.60;;;1.30;;
7340;SDS011;6870;50.944;6.932;2022-11-27T04:43:48;1.20;;;1.10;;
7340;SDS011;6870;50.944;6.932;2022-11-27T04:46:16;3.33;;;1.77;;
7340;SDS011;6870;50.944;6.932;2022-11-27T04:48:44;2.13;;;1.63;;
7340;SDS011;6870;50.944;6.932;2022-11-27T04:51:12;4.90;;;1.60;;
7340;SDS011;6870;50.944;6.932;2022-11-27T04:53:41;2.93;;;1.50;;
7340;SDS011;6870;50.944;6.932;2022-11-27T04:56:09;3.33;;;1.47;;
7340;SDS011;6870;50.944;6.932;2022-11-27T04:58:37;2.50;;;1.83;;
7340;SDS011;6870;50.944;6.932;2022-11-27T05:01:06;1.70;;;1.53;;
7340;SDS011;6870;50.944;6.932;2022-11-27T05:03:35;1.70;;;1.37;;
7340;SDS011;6870;50.944;6.932;2022-11-27T05:06:03;5.10;;;2.00;;
7340;SDS011;6870;50.944;6.932;2022-11-27T05:08:32;2.20;;;1.70;;
7340;SDS011;6870;50.944;6.932;2022-11-27T05:11:02;3.37;;;1.60;;
7340;SDS011;6870;50.944;6.932;2022-11-27T05:13:33;3.70;;;1.43;;
7340;SDS011;6870;50.944;6.932;2022-11-27T05:16:01;3.03;;;1.40;;
7340;SDS011;6870;50.944;6.932;2022-11-27T05:18:30;2.57;;;1.60;;
7340;SDS011;6870;50.944;6.932;2022-11-27T05:20:59;3.07;;;2.00;;
7340;SDS011;6870;50.944;6.932;2022-11-27T05:23:29;2.00;;;1.73;;
7340;SDS011;6870;50.944;6.932;2022-11-27T05:25:58;2.90;;;1.77;;
7340;SDS011;6870;50.944;6.932;2022-11-27T05:28:28;2.87;;;1.60;;
7340;SDS011;6870;50.944;6.932;2022-11-27T05:30:56;2.27;;;1.77;;
7340;SDS011;6870;50.944;6.932;2022-11-27T05:33:24;3.27;;;1.63;;
7340;SDS011;6870;50.944;6.932;2022-11-27T05:35:52;1.90;;;1.17;;
7340;SDS011;6870;50.944;6.932;2022-11-27T05:38:20;3.63;;;1.53;;
7340;SDS011;6870;50.944;6.932;2022-11-27T05:40:48;2.10;;;1.57;;
7340;SDS011;6870;50.944;6.932;2022-11-27T05:43:16;2.40;;;1.77;;
7340;SDS011;6870;50.944;6.932;2022-11-27T05:45:46;2.20;;;1.70;;
7340;SDS011;6870;50.944;6.932;2022-11-27T05:48:14;1.87;;;1.30;;
7340;SDS011;6870;50.944;6.932;2022-11-27T05:50:42;3.83;;;2.00;;
7340;SDS011;6870;50.944;6.932;2022-11-27T05:53:10;2.37;;;1.53;;
7340;SDS011;6870;50.944;6.932;2022-11-27T05:55:38;1.70;;;1.40;;
7340;SDS011;6870;50.944;6.932;2022-11-27T05:58:06;3.60;;;1.70;;
7340;SDS011;6870;50.944;6.932;2022-11-27T06:00:34;2.20;;;1.30;;
7340;SDS011;6870;50.944;6.932;2022-11-27T06:03:03;3.20;;;1.80;;
7340;SDS011;6870;50.944;6.932;2022-11-27T06:05:31;2.17;;;1.67;;
7340;SDS011;6870;50.944;6.932;2022-11-27T06:07:59;1.93;;;1.53;;
7340;SDS011;6870;50.944;6.932;2022-11-27T06:10:27;2.37;;;1.50;;
7340;SDS011;6870;50.944;6.932;2022-11-27T06:12:55;2.33;;;1.20;;
7340;SDS011;6870;50.944;6.932;2022-11-27T06:15:24;1.93;;;1.60;;
7340;SDS011;6870;50.944;6.932;2022-11-27T06:17:52;1.57;;;1.37;;
7340;SDS011;6870;50.944;6.932;2022-11-27T06:20:21;2.03;;;1.57;;
7340;SDS011;6870;50.944;6.932;2022-11-27T06:22:50;2.13;;;1.53;;
7340;SDS011;6870;50.944;6.932;2022-11-27T06:25:18;2.50;;;1.53;;
7340;SDS011;6870;50.944;6.932;2022-11-27T06:27:46;2.87;;;1.77;;
7340;SDS011;6870;50.944;6.932;2022-11-27T06:30:14;1.97;;;1.30;;
7340;SDS011;6870;50.944;6.932;2022-11-27T06:32:42;1.80;;;1.10;;
7340;SDS011;6870;50.944;6.932;2022-11-27T06:35:11;2.20;;;1.20;;
7340;SDS011;6870;50.944;6.932;2022-11-27T06:37:40;2.70;;;1.57;;
7340;SDS011;6870;50.944;6.932;2022-11-27T06:40:08;2.40;;;1.50;;
7340;SDS011;6870;50.944;6.932;2022-11-27T06:42:37;2.60;;;1.60;;
7340;SDS011;6870;50.944;6.932;2022-11-27T06:45:06;1.50;;;1.20;;
7340;SDS011;6870;50.944;6.932;2022-11-27T06:47:35;2.37;;;1.73;;
7340;SDS011;6870;50.944;6.932;2022-11-27T06:50:03;3.20;;;1.67;;
7340;SDS011;6870;50.944;6.932;2022-11-27T06:52:33;1.47;;;1.20;;
7340;SDS011;6870;50.944;6.932;2022-11-27T06:55:07;1.87;;;1.30;;
7340;SDS011;6870;50.944;6.932;2022-11-27T06:57:35;2.13;;;1.07;;
7340;SDS011;6870;50.944;6.932;2022-11-27T07:00:04;2.20;;;1.80;;
7340;SDS011;6870;50.944;6.932;2022-11-27T07:02:34;2.13;;;1.37;;
7340;SDS011;6870;50.944;6.932;2022-11-27T07:05:02;3.20;;;1.70;;
7340;SDS011;6870;50.944;6.932;2022-11-27T07:07:30;3.70;;;1.90;;
7340;SDS011;6870;50.944;6.932;2022-11-27T07:09:59;2.13;;;1.33;;
7340;SDS011;6870;50.944;6.932;2022-11-27T07:12:28;1.80;;;1.30;;
7340;SDS011;6870;50.944;6.932;2022-11-27T07:14:56;2.27;;;1.80;;
7340;SDS011;6870;50.944;6.932;2022-11-27T07:17:29;2.57;;;1.60;;
7340;SDS011;6870;50.944;6.932;2022-11-27T07:19:57;4.53;;;1.80;;
7340;SDS011;6870;50.944;6.932;2022-11-27T07:22:25;1.50;;;1.40;;
7340;SDS011;6870;50.944;6.932;2022-11-27T07:24:53;2.77;;;1.37;;
7340;SDS011;6870;50.944;6.932;2022-11-27T07:27:21;1.87;;;1.50;;
7340;SDS011;6870;50.944;6.932;2022-11-27T07:29:51;1.80;;;1.10;;
7340;SDS011;6870;50.944;6.932;2022-11-27T07:32:19;2.23;;;1.43;;
7340;SDS011;6870;50.944;6.932;2022-11-27T07:34:47;2.13;;;1.40;;
7340;SDS011;6870;50.944;6.932;2022-11-27T07:37:15;1.20;;;1.10;;
7340;SDS011;6870;50.944;6.932;2022-11-27T07:39:43;1.90;;;1.40;;
7340;SDS011;6870;50.944;6.932;2022-11-27T07:42:28;3.50;;;1.70;;
7340;SDS011;6870;50.944;6.932;2022-11-27T07:45:06;1.97;;;1.47;;
7340;SDS011;6870;50.944;6.932;2022-11-27T07:47:34;2.13;;;1.73;;
7340;SDS011;6870;50.944;6.932;2022-11-27T07:50:03;1.93;;;1.30;;
7340;SDS011;6870;50.944;6.932;2022-11-27T07:52:34;2.67;;;1.17;;
7340;SDS011;6870;50.944;6.932;2022-11-27T07:55:07;1.97;;;1.33;;
7340;SDS011;6870;50.944;6.932;2022-11-27T07:57:36;2.23;;;1.40;;
7340;SDS011;6870;50.944;6.932;2022-11-27T08:00:07;3.40;;;1.40;;
7340;SDS011;6870;50.944;6.932;2022-11-27T08:02:36;1.30;;;1.20;;
7340;SDS011;6870;50.944;6.932;2022-11-27T08:05:05;2.30;;;1.30;;
7340;SDS011;6870;50.944;6.932;2022-11-27T08:07:38;2.00;;;1.40;;
7340;SDS011;6870;50.944;6.932;2022-11-27T08:10:06;4.03;;;1.53;;
7340;SDS011;6870;50.944;6.932;2022-11-27T08:12:35;3.20;;;1.43;;
7340;SDS011;6870;50.944;6.932;2022-11-27T08:15:03;3.90;;;1.83;;
7340;SDS011;6870;50.944;6.932;2022-11-27T08:17:33;1.70;;;1.30;;
7340;SDS011;6870;50.944;6.932;2022-11-27T08:20:02;1.80;;;1.23;;
7340;SDS011;6870;50.944;6.932;2022-11-27T08:22:31;1.50;;;1.30;;
7340;SDS011;6870;50.944;6.932;2022-11-27T08:25:00;1.90;;;1.80;;
7340;SDS011;6870;50.944;6.932;2022-11-27T08:27:29;1.50;;;1.40;;
7340;SDS011;6870;50.944;6.932;2022-11-27T08:29:58;2.27;;;1.40;;
7340;SDS011;6870;50.944;6.932;2022-11-27T08:32:27;3.70;;;1.43;;
7340;SDS011;6870;50.944;6.932;2022-11-27T08:34:56;3.93;;;1.50;;
7340;SDS011;6870;50.944;6.932;2022-11-27T08:37:24;3.10;;;1.53;;
7340;SDS011;6870;50.944;6.932;2022-11-27T08:39:52;2.27;;;1.37;;
7340;SDS011;6870;50.944;6.932;2022-11-27T08:42:20;1.80;;;1.53;;
7340;SDS011;6870;50.944;6.932;2022-11-27T08:44:48;1.57;;;1.13;;
7340;SDS011;6870;50.944;6.932;2022-11-27T08:47:17;2.23;;;1.20;;
7340;SDS011;6870;50.944;6.932;2022-11-27T08:49:45;1.97;;;1.30;;
7340;SDS011;6870;50.944;6.932;2022-11-27T08:52:15;3.37;;;0.97;;
7340;SDS011;6870;50.944;6.932;2022-11-27T08:54:43;2.23;;;1.40;;
7340;SDS011;6870;50.944;6.932;2022-11-27T08:57:11;1.87;;;1.30;;
7340;SDS011;6870;50.944;6.932;2022-11-27T08:59:39;2.40;;;1.60;;
7340;SDS011;6870;50.944;6.932;2022-11-27T09:02:09;2.50;;;1.10;;
7340;SDS011;6870;50.944;6.932;2022-11-27T09:04:38;3.40;;;1.90;;
7340;SDS011;6870;50.944;6.932;2022-11-27T09:07:06;5.43;;;1.37;;
7340;SDS011;6870;50.944;6.932;2022-11-27T09:09:38;1.83;;;1.40;;
7340;SDS011;6870;50.944;6.932;2022-11-27T09:12:06;1.67;;;1.27;;
7340;SDS011;6870;50.944;6.932;2022-11-27T09:14:35;1.40;;;1.17;;
7340;SDS011;6870;50.944;6.932;2022-11-27T09:17:03;5.33;;;1.50;;
7340;SDS011;6870;50.944;6.932;2022-11-27T09:19:31;3.63;;;1.20;;
7340;SDS011;6870;50.944;6.932;2022-11-27T09:21:59;2.53;;;1.23;;
7340;SDS011;6870;50.944;6.932;2022-11-27T09:24:27;2.00;;;1.33;;
7340;SDS011;6870;50.944;6.932;2022-11-27T09:26:57;1.20;;;1.10;;
7340;SDS011;6870;50.944;6.932;2022-11-27T09:29:25;1.40;;;0.97;;
7340;SDS011;6870;50.944;6.932;2022-11-27T09:31:53;1.70;;;1.40;;
7340;SDS011;6870;50.944;6.932;2022-11-27T09:34:21;1.63;;;1.30;;
7340;SDS011;6870;50.944;6.932;2022-11-27T09:36:49;2.40;;;1.53;;
7340;SDS011;6870;50.944;6.932;2022-11-27T09:39:17;3.27;;;1.90;;
7340;SDS011;6870;50.944;6.932;2022-11-27T09:41:45;2.03;;;1.67;;
7340;SDS011;6870;50.944;6.932;2022-11-27T09:44:23;5.03;;;1.07;;
7340;SDS011;6870;50.944;6.932;2022-11-27T09:46:58;1.60;;;0.93;;
7340;SDS011;6870;50.944;6.932;2022-11-27T09:49:34;1.90;;;1.13;;
7340;SDS011;6870;50.944;6.932;2022-11-27T09:52:10;1.90;;;1.23;;
7340;SDS011;6870;50.944;6.932;2022-11-27T09:54:49;2.60;;;1.23;;
7340;SDS011;6870;50.944;6.932;2022-11-27T09:57:24;2.87;;;1.63;;
7340;SDS011;6870;50.944;6.932;2022-11-27T09:59:59;2.50;;;1.37;;
7340;SDS011;6870;50.944;6.932;2022-11-27T10:02:32;1.50;;;1.10;;
7340;SDS011;6870;50.944;6.932;2022-11-27T10:05:02;2.73;;;1.57;;
7340;SDS011;6870;50.944;6.932;2022-11-27T10:07:43;4.80;;;1.50;;
7340;SDS011;6870;50.944;6.932;2022-11-27T10:10:39;4.70;;;1.87;;
7340;SDS011;6870;50.944;6.932;2022-11-27T10:13:23;8.73;;;4.30;;
7340;SDS011;6870;50.944;6.932;2022-11-27T10:16:07;6.13;;;3.47;;
7340;SDS011;6870;50.944;6.932;2022-11-27T10:18:47;6.43;;;3.30;;
7340;SDS011;6870;50.944;6.932;2022-11-27T10:21:22;4.60;;;3.23;;
7340;SDS011;6870;50.944;6.932;2022-11-27T10:24:01;5.97;;;3.47;;
7340;SDS011;6870;50.944;6.932;2022-11-27T10:26:42;3.50;;;3.07;;
7340;SDS011;6870;50.944;6.932;2022-11-27T10:29:19;4.47;;;3.23;;
7340;SDS011;6870;50.944;6.932;2022-11-27T10:32:04;4.80;;;2.47;;
7340;SDS011;6870;50.944;6.932;2022-11-27T10:34:59;3.50;;;2.30;;
7340;SDS011;6870;50.944;6.932;2022-11-27T10:37:32;10.30;;;2.80;;
7340;SDS011;6870;50.944;6.932;2022-11-27T10:40:07;3.57;;;2.90;;
7340;SDS011;6870;50.944;6.932;2022-11-27T10:42:47;3.00;;;2.37;;
7340;SDS011;6870;50.944;6.932;2022-11-27T10:45:23;6.97;;;2.50;;
7340;SDS011;6870;50.944;6.932;2022-11-27T10:48:06;3.20;;;2.23;;
7340;SDS011;6870;50.944;6.932;2022-11-27T10:50:34;5.37;;;2.23;;
7340;SDS011;6870;50.944;6.932;2022-11-27T10:53:03;3.50;;;1.83;;
7340;SDS011;6870;50.944;6.932;2022-11-27T10:55:38;4.13;;;2.23;;
7340;SDS011;6870;50.944;6.932;2022-11-27T10:58:24;4.47;;;2.90;;
7340;SDS011;6870;50.944;6.932;2022-11-27T11:01:00;4.00;;;2.43;;
7340;SDS011;6870;50.944;6.932;2022-11-27T11:03:32;3.53;;;1.97;;
7340;SDS011;6870;50.944;6.932;2022-11-27T11:06:01;4.00;;;2.03;;
7340;SDS011;6870;50.944;6.932;2022-11-27T11:08:59;3.47;;;2.13;;
7340;SDS011;6870;50.944;6.932;2022-11-27T11:11:30;3.43;;;2.13;;
7340;SDS011;6870;50.944;6.932;2022-11-27T11:13:58;6.43;;;1.93;;
7340;SDS011;6870;50.944;6.932;2022-11-27T11:16:27;2.30;;;1.80;;
7340;SDS011;6870;50.944;6.932;2022-11-27T11:19:02;2.17;;;1.80;;
7340;SDS011;6870;50.944;6.932;2022-11-27T11:21:34;4.17;;;2.00;;
7340;SDS011;6870;50.944;6.932;2022-11-27T11:24:10;2.23;;;2.00;;
7340;SDS011;6870;50.944;6.932;2022-11-27T11:26:43;9.50;;;3.20;;
7340;SDS011;6870;50.944;6.932;2022-11-27T11:29:19;3.27;;;2.23;;
7340;SDS011;6870;50.944;6.932;2022-11-27T11:32:01;2.83;;;2.17;;
7340;SDS011;6870;50.944;6.932;2022-11-27T11:34:39;2.80;;;2.30;;
7340;SDS011;6870;50.944;6.932;2022-11-27T11:37:17;5.60;;;2.30;;
7340;SDS011;6870;50.944;6.932;2022-11-27T11:39:53;4.73;;;2.03;;
7340;SDS011;6870;50.944;6.932;2022-11-27T11:42:26;4.40;;;2.67;;
7340;SDS011;6870;50.944;6.932;2022-11-27T11:45:00;5.53;;;2.97;;
7340;SDS011;6870;50.944;6.932;2022-11-27T11:47:32;3.67;;;2.33;;
7340;SDS011;6870;50.944;6.932;2022-11-27T11:50:03;3.23;;;2.20;;
7340;SDS011;6870;50.944;6.932;2022-11-27T11:52:37;5.00;;;2.60;;
7340;SDS011;6870;50.944;6.932;2022-11-27T11:55:17;3.37;;;2.00;;
7340;SDS011;6870;50.944;6.932;2022-11-27T11:57:56;3.97;;;2.57;;
7340;SDS011;6870;50.944;6.932;2022-11-27T12:00:47;5.00;;;2.20;;
7340;SDS011;6870;50.944;6.932;2022-11-27T12:03:47;4.50;;;3.00;;
7340;SDS011;6870;50.944;6.932;2022-11-27T12:06:33;8.90;;;3.00;;
7340;SDS011;6870;50.944;6.932;2022-11-27T12:09:17;4.03;;;2.30;;
7340;SDS011;6870;50.944;6.932;2022-11-27T12:12:01;3.37;;;2.40;;
7340;SDS011;6870;50.944;6.932;2022-11-27T12:14:41;4.17;;;2.73;;
7340;SDS011;6870;50.944;6.932;2022-11-27T12:17:17;8.43;;;3.80;;
7340;SDS011;6870;50.944;6.932;2022-11-27T12:20:09;4.17;;;2.93;;
7340;SDS011;6870;50.944;6.932;2022-11-27T12:23:01;5.70;;;3.13;;
7340;SDS011;6870;50.944;6.932;2022-11-27T12:26:03;6.70;;;2.67;;
7340;SDS011;6870;50.944;6.932;2022-11-27T12:32:06;6.80;;;2.40;;
7340;SDS011;6870;50.944;6.932;2022-11-27T12:34:49;3.73;;;2.47;;
7340;SDS011;6870;50.944;6.932;2022-11-27T12:37:36;3.43;;;2.87;;
7340;SDS011;6870;50.944;6.932;2022-11-27T12:40:21;4.07;;;2.30;;
7340;SDS011;6870;50.944;6.932;2022-11-27T12:43:04;3.73;;;2.40;;
7340;SDS011;6870;50.944;6.932;2022-11-27T12:45:44;6.77;;;2.60;;
7340;SDS011;6870;50.944;6.932;2022-11-27T12:48:18;3.90;;;2.13;;
7340;SDS011;6870;50.944;6.932;2022-11-27T12:50:52;3.50;;;2.77;;
7340;SDS011;6870;50.944;6.932;2022-11-27T12:53:24;9.50;;;3.13;;
7340;SDS011;6870;50.944;6.932;2022-11-27T12:56:02;3.10;;;2.67;;
7340;SDS011;6870;50.944;6.932;2022-11-27T12:58:37;4.30;;;2.40;;
7340;SDS011;6870;50.944;6.932;2022-11-27T13:01:10;7.97;;;3.40;;
7340;SDS011;6870;50.944;6.932;2022-11-27T13:03:55;6.33;;;2.77;;
7340;SDS011;6870;50.944;6.932;2022-11-27T13:06:33;8.17;;;2.30;;
7340;SDS011;6870;50.944;6.932;2022-11-27T13:09:15;5.23;;;3.20;;
7340;SDS011;6870;50.944;6.932;2022-11-27T13:11:53;5.47;;;3.40;;
7340;SDS011;6870;50.944;6.932;2022-11-27T13:14:23;9.60;;;3.00;;
7340;SDS011;6870;50.944;6.932;2022-11-27T13:16:54;3.70;;;1.97;;
7340;SDS011;6870;50.944;6.932;2022-11-27T13:19:29;4.53;;;2.40;;
7340;SDS011;6870;50.944;6.932;2022-11-27T13:22:01;8.23;;;3.10;;
7340;SDS011;6870;50.944;6.932;2022-11-27T13:24:32;4.60;;;2.33;;
7340;SDS011;6870;50.944;6.932;2022-11-27T13:27:02;7.40;;;4.10;;
7340;SDS011;6870;50.944;6.932;2022-11-27T13:29:36;7.83;;;2.63;;
7340;SDS011;6870;50.944;6.932;2022-11-27T13:32:12;4.67;;;2.57;;
7340;SDS011;6870;50.944;6.932;2022-11-27T13:34:46;9.77;;;2.80;;
7340;SDS011;6870;50.944;6.932;2022-11-27T13:37:24;4.40;;;3.07;;
7340;SDS011;6870;50.944;6.932;2022-11-27T13:40:00;6.40;;;3.00;;
7340;SDS011;6870;50.944;6.932;2022-11-27T13:42:33;3.10;;;2.00;;
7340;SDS011;6870;50.944;6.932;2022-11-27T13:45:03;4.83;;;2.97;;
7340;SDS011;6870;50.944;6.932;2022-11-27T13:47:37;5.30;;;3.57;;
7340;SDS011;6870;50.944;6.932;2022-11-27T13:50:08;4.23;;;2.40;;
7340;SDS011;6870;50.944;6.932;2022-11-27T13:52:48;5.33;;;2.57;;
7340;SDS011;6870;50.944;6.932;2022-11-27T13:55:24;6.83;;;2.50;;
7340;SDS011;6870;50.944;6.932;2022-11-27T13:57:56;3.30;;;2.70;;
7340;SDS011;6870;50.944;6.932;2022-11-27T14:00:29;5.67;;;3.33;;
7340;SDS011;6870;50.944;6.932;2022-11-27T14:03:01;6.10;;;2.43;;
7340;SDS011;6870;50.944;6.932;2022-11-27T14:05:34;4.20;;;2.63;;
7340;SDS011;6870;50.944;6.932;2022-11-27T14:08:14;5.03;;;2.97;;
7340;SDS011;6870;50.944;6.932;2022-11-27T14:10:47;4.67;;;2.67;;
7340;SDS011;6870;50.944;6.932;2022-11-27T14:13:21;5.70;;;2.93;;
7340;SDS011;6870;50.944;6.932;2022-11-27T14:16:00;5.57;;;2.47;;
7340;SDS011;6870;50.944;6.932;2022-11-27T14:18:30;7.10;;;3.33;;
7340;SDS011;6870;50.944;6.932;2022-11-27T14:20:59;6.97;;;2.70;;
7340;SDS011;6870;50.944;6.932;2022-11-27T14:23:30;8.53;;;2.37;;
7340;SDS011;6870;50.944;6.932;2022-11-27T14:26:01;8.93;;;2.93;;
7340;SDS011;6870;50.944;6.932;2022-11-27T14:28:47;7.73;;;2.80;;
7340;SDS011;6870;50.944;6.932;2022-11-27T14:31:20;12.03;;;2.73;;
7340;SDS011;6870;50.944;6.932;2022-11-27T14:33:54;8.73;;;3.90;;
7340;SDS011;6870;50.944;6.932;2022-11-27T14:36:43;12.37;;;4.20;;
7340;SDS011;6870;50.944;6.932;2022-11-27T14:39:19;9.63;;;4.30;;
7340;SDS011;6870;50.944;6.932;2022-11-27T14:41:55;11.03;;;4.20;;
7340;SDS011;6870;50.944;6.932;2022-11-27T14:44:26;8.47;;;3.90;;
7340;SDS011;6870;50.944;6.932;2022-11-27T14:46:55;14.63;;;4.23;;
7340;SDS011;6870;50.944;6.932;2022-11-27T14:49:28;12.77;;;4.17;;
7340;SDS011;6870;50.944;6.932;2022-11-27T14:51:59;13.37;;;3.83;;
7340;SDS011;6870;50.944;6.932;2022-11-27T14:54:31;9.20;;;4.00;;
7340;SDS011;6870;50.944;6.932;2022-11-27T14:57:02;12.03;;;4.97;;
7340;SDS011;6870;50.944;6.932;2022-11-27T14:59:32;13.50;;;4.80;;
7340;SDS011;6870;50.944;6.932;2022-11-27T15:02:01;11.37;;;4.03;;
7340;SDS011;6870;50.944;6.932;2022-11-27T15:04:44;8.87;;;4.17;;
7340;SDS011;6870;50.944;6.932;2022-11-27T15:07:13;10.00;;;4.50;;
7340;SDS011;6870;50.944;6.932;2022-11-27T15:09:46;11.70;;;5.00;;
7340;SDS011;6870;50.944;6.932;2022-11-27T15:12:17;8.57;;;3.57;;
7340;SDS011;6870;50.944;6.932;2022-11-27T15:14:53;7.10;;;4.30;;
7340;SDS011;6870;50.944;6.932;2022-11-27T15:17:25;6.80;;;4.33;;
7340;SDS011;6870;50.944;6.932;2022-11-27T15:19:56;9.07;;;4.10;;
7340;SDS011;6870;50.944;6.932;2022-11-27T15:22:25;8.40;;;3.80;;
7340;SDS011;6870;50.944;6.932;2022-11-27T15:24:57;10.63;;;4.27;;
7340;SDS011;6870;50.944;6.932;2022-11-27T15:27:27;12.97;;;4.50;;
7340;SDS011;6870;50.944;6.932;2022-11-27T15:30:07;14.00;;;3.97;;
7340;SDS011;6870;50.944;6.932;2022-11-27T15:32:43;9.80;;;4.80;;
7340;SDS011;6870;50.944;6.932;2022-11-27T15:35:20;10.73;;;4.60;;
7340;SDS011;6870;50.944;6.932;2022-11-27T15:37:52;7.80;;;3.50;;
7340;SDS011;6870;50.944;6.932;2022-11-27T15:40:26;7.50;;;3.87;;
7340;SDS011;6870;50.944;6.932;2022-11-27T15:42:58;8.10;;;4.37;;
7340;SDS011;6870;50.944;6.932;2022-11-27T15:45:28;7.70;;;3.53;;
7340;SDS011;6870;50.944;6.932;2022-11-27T15:47:58;7.40;;;3.43;;
7340;SDS011;6870;50.944;6.932;2022-11-27T15:50:28;7.10;;;3.97;;
7340;SDS011;6870;50.944;6.932;2022-11-27T15:52:56;8.23;;;4.90;;
7340;SDS011;6870;50.944;6.932;2022-11-27T15:55:26;7.50;;;3.20;;